createdAt,value
2022-10-15T00:01:49.634Z,76.34
2022-10-15T00:03:51.051Z,76.24
2022-10-15T00:05:52.365Z,76.19
2022-10-15T00:07:53.682Z,76.17
2022-10-15T00:09:54.967Z,76.28
2022-10-15T00:11:56.255Z,76.44
2022-10-15T00:13:57.522Z,76.17
2022-10-15T00:15:58.805Z,76.71
2022-10-15T00:18:00.134Z,76.44
2022-10-15T00:20:01.455Z,76.96
2022-10-15T00:22:03.007Z,76.78
2022-10-15T00:24:04.311Z,76.82
2022-10-15T00:26:05.579Z,76.76
2022-10-15T00:28:06.859Z,76.72
2022-10-15T00:30:08.413Z,77.11
2022-10-15T00:32:09.680Z,77.09
2022-10-15T00:34:11.114Z,77.35
2022-10-15T00:36:12.411Z,77.51
2022-10-15T00:38:13.711Z,77.60
2022-10-15T00:40:15.614Z,77.63
2022-10-15T00:42:16.881Z,78.48
2022-10-15T00:44:18.202Z,78.50
2022-10-15T00:46:19.511Z,77.66
2022-10-15T00:48:20.787Z,77.91
2022-10-15T00:50:22.628Z,77.84
2022-10-15T00:52:24.148Z,77.52
2022-10-15T00:54:25.674Z,77.79
2022-10-15T00:56:26.929Z,77.38
2022-10-15T00:58:28.503Z,77.66
2022-10-15T01:00:29.776Z,77.34
2022-10-15T01:02:31.055Z,77.49
2022-10-15T01:04:32.362Z,77.58
2022-10-15T01:06:33.619Z,77.66
2022-10-15T01:08:34.896Z,77.58
2022-10-15T01:10:36.206Z,77.58
2022-10-15T01:12:37.499Z,77.47
2022-10-15T01:14:38.782Z,77.37
2022-10-15T01:16:40.059Z,77.32
2022-10-15T01:18:41.331Z,76.98
2022-10-15T01:20:42.587Z,77.50
2022-10-15T01:22:43.879Z,77.22
2022-10-15T01:24:45.535Z,77.37
2022-10-15T01:26:46.796Z,77.37
2022-10-15T01:28:48.155Z,77.29
2022-10-15T01:30:49.700Z,77.44
2022-10-15T01:32:50.999Z,77.59
2022-10-15T01:34:52.310Z,77.55
2022-10-15T01:36:53.583Z,77.29
2022-10-15T01:38:54.883Z,77.54
2022-10-15T01:40:56.183Z,77.84
2022-10-15T01:42:57.901Z,77.20
2022-10-15T01:44:59.170Z,77.28
2022-10-15T01:47:00.451Z,77.15
2022-10-15T01:49:01.783Z,77.48
2022-10-15T01:51:03.122Z,77.39
2022-10-15T01:53:04.459Z,77.35
2022-10-15T01:55:05.731Z,77.72
2022-10-15T01:57:07.055Z,77.35
2022-10-15T01:59:08.336Z,77.47
2022-10-15T02:01:09.831Z,77.17
2022-10-15T02:03:11.206Z,76.99
2022-10-15T02:05:12.532Z,77.33
2022-10-15T02:07:13.803Z,77.28
2022-10-15T02:09:15.482Z,77.07
2022-10-15T02:11:16.801Z,76.75
2022-10-15T02:13:18.131Z,76.81
2022-10-15T02:15:19.443Z,76.73
2022-10-15T02:17:20.782Z,76.17
2022-10-15T02:19:22.094Z,76.33
2022-10-15T02:21:23.402Z,76.43
2022-10-15T02:23:24.663Z,75.95
2022-10-15T02:25:26.122Z,75.95
2022-10-15T02:27:27.380Z,76.18
2022-10-15T02:29:28.662Z,75.93
2022-10-15T02:31:29.965Z,75.89
2022-10-15T02:33:31.275Z,76.34
2022-10-15T02:35:32.556Z,76.50
2022-10-15T02:37:33.853Z,76.02
2022-10-15T02:39:35.173Z,75.73
2022-10-15T02:41:36.489Z,75.94
2022-10-15T02:43:37.791Z,76.26
2022-10-15T02:45:39.237Z,76.08
2022-10-15T02:47:40.510Z,76.02
2022-10-15T02:49:41.791Z,76.07
2022-10-15T02:51:43.077Z,76.15
2022-10-15T02:53:44.347Z,76.58
2022-10-15T02:55:46.978Z,76.19
2022-10-15T02:57:48.230Z,76.47
2022-10-15T02:59:49.511Z,76.11
2022-10-15T03:01:51.025Z,76.38
2022-10-15T03:03:52.394Z,76.49
2022-10-15T03:05:53.659Z,76.44
2022-10-15T03:07:55.110Z,76.70
2022-10-15T03:09:56.382Z,76.28
2022-10-15T03:11:57.663Z,76.62
2022-10-15T03:13:58.977Z,76.28
2022-10-15T03:16:00.256Z,76.95
2022-10-15T03:18:01.535Z,76.46
2022-10-15T03:20:03.024Z,76.58
2022-10-15T03:22:04.313Z,76.42
2022-10-15T03:24:05.608Z,76.54
2022-10-15T03:26:06.934Z,76.30
2022-10-15T03:28:08.184Z,76.38
2022-10-15T03:30:09.482Z,76.84
2022-10-15T03:32:10.737Z,76.50
2022-10-15T03:34:12.047Z,76.48
2022-10-15T03:36:13.330Z,76.73
2022-10-15T03:38:14.590Z,77.07
2022-10-15T03:40:15.877Z,76.77
2022-10-15T03:42:17.131Z,76.70
2022-10-15T03:44:18.428Z,76.83
2022-10-15T03:46:19.709Z,76.47
2022-10-15T03:48:21.039Z,76.67
2022-10-15T03:50:22.368Z,76.94
2022-10-15T03:52:23.878Z,76.80
2022-10-15T03:54:25.382Z,76.89
2022-10-15T03:56:26.679Z,76.94
2022-10-15T03:58:27.974Z,76.67
2022-10-15T04:00:29.527Z,76.97
2022-10-15T04:02:30.801Z,76.53
2022-10-15T04:04:32.194Z,76.76
2022-10-15T04:06:34.539Z,77.00
2022-10-15T04:08:35.837Z,77.13
2022-10-15T04:10:37.113Z,76.66
2022-10-15T04:12:38.416Z,76.73
2022-10-15T04:14:39.671Z,76.71
2022-10-15T04:16:40.965Z,76.80
2022-10-15T04:18:42.250Z,76.72
2022-10-15T04:20:43.578Z,76.56
2022-10-15T04:22:44.910Z,76.51
2022-10-15T04:24:46.351Z,76.97
2022-10-15T04:26:47.859Z,76.98
2022-10-15T04:28:49.227Z,76.50
2022-10-15T04:30:50.549Z,76.70
2022-10-15T04:32:51.860Z,77.16
2022-10-15T04:34:53.175Z,76.87
2022-10-15T04:36:54.470Z,76.77
2022-10-15T04:38:55.732Z,76.70
2022-10-15T04:40:56.988Z,77.26
2022-10-15T04:42:58.365Z,76.88
2022-10-15T04:44:59.654Z,76.71
2022-10-15T04:47:00.942Z,77.01
2022-10-15T04:49:02.262Z,76.47
2022-10-15T04:51:03.539Z,76.79
2022-10-15T04:53:04.847Z,76.69
2022-10-15T04:55:06.142Z,76.69
2022-10-15T04:57:07.419Z,76.83
2022-10-15T04:59:08.764Z,76.94
2022-10-15T05:01:12.191Z,77.11
2022-10-15T05:03:13.529Z,77.33
2022-10-15T05:05:14.804Z,77.22
2022-10-15T05:07:16.411Z,77.05
2022-10-15T05:09:17.716Z,77.24
2022-10-15T05:11:18.979Z,77.43
2022-10-15T05:13:20.254Z,77.32
2022-10-15T05:15:21.589Z,77.20
2022-10-15T05:17:23.077Z,76.99
2022-10-15T05:19:24.707Z,77.36
2022-10-15T05:21:25.994Z,77.21
2022-10-15T05:23:27.291Z,77.13
2022-10-15T05:25:28.587Z,77.00
2022-10-15T05:27:29.870Z,76.85
2022-10-15T05:29:34.051Z,77.05
2022-10-15T05:31:35.326Z,76.94
2022-10-15T05:33:36.647Z,77.16
2022-10-15T05:35:37.991Z,77.69
2022-10-15T05:37:39.247Z,77.11
2022-10-15T05:39:40.517Z,76.73
2022-10-15T05:41:41.834Z,77.37
2022-10-15T05:43:43.137Z,76.94
2022-10-15T05:45:44.459Z,76.86
2022-10-15T05:47:45.751Z,76.80
2022-10-15T05:49:49.735Z,77.15
2022-10-15T05:51:51.088Z,76.86
2022-10-15T05:53:52.505Z,76.86
2022-10-15T05:55:54.103Z,77.34
2022-10-15T05:57:55.756Z,77.24
2022-10-15T05:59:57.038Z,77.09
2022-10-15T06:01:58.347Z,77.19
2022-10-15T06:03:59.691Z,77.18
2022-10-15T06:06:01.053Z,77.15
2022-10-15T06:08:02.342Z,77.00
2022-10-15T06:10:03.639Z,77.63
2022-10-15T06:12:04.934Z,77.28
2022-10-15T06:14:06.421Z,77.33
2022-10-15T06:16:07.726Z,77.61
2022-10-15T06:18:09.607Z,77.37
2022-10-15T06:20:10.882Z,77.41
2022-10-15T06:22:12.150Z,77.56
2022-10-15T06:24:13.443Z,77.86
2022-10-15T06:26:17.718Z,77.40
2022-10-15T06:28:22.136Z,77.66
2022-10-15T06:30:23.447Z,77.52
2022-10-15T06:32:24.718Z,77.85
2022-10-15T06:34:25.990Z,77.53
2022-10-15T06:36:30.010Z,77.52
2022-10-15T06:38:31.327Z,77.92
2022-10-15T06:40:32.594Z,77.56
2022-10-15T06:42:33.867Z,77.71
2022-10-15T06:44:35.138Z,77.57
2022-10-15T06:46:36.448Z,77.42
2022-10-15T06:48:37.725Z,77.71
2022-10-15T06:50:39.164Z,77.57
2022-10-15T06:52:40.488Z,77.47
2022-10-15T06:54:41.802Z,77.19
2022-10-15T06:56:43.070Z,77.06
2022-10-15T06:58:44.397Z,77.62
2022-10-15T07:00:45.691Z,77.37
2022-10-15T07:02:47.499Z,77.23
2022-10-15T07:04:48.801Z,77.56
2022-10-15T07:06:50.074Z,77.13
2022-10-15T07:08:51.386Z,77.56
2022-10-15T07:10:52.657Z,77.48
2022-10-15T07:12:54.983Z,77.31
2022-10-15T07:14:56.290Z,77.15
2022-10-15T07:16:57.620Z,77.13
2022-10-15T07:18:58.944Z,77.40
2022-10-15T07:21:00.300Z,77.34
2022-10-15T07:23:01.674Z,71.92
2022-10-15T07:25:02.959Z,70.66
2022-10-15T07:27:08.154Z,69.93
2022-10-15T07:29:18.363Z,70.60
2022-10-15T07:31:19.663Z,69.95
2022-10-15T07:33:21.023Z,70.92
2022-10-15T07:35:22.278Z,69.00
2022-10-15T07:37:23.542Z,72.31
2022-10-15T07:39:24.846Z,71.06
2022-10-15T07:41:26.177Z,70.71
2022-10-15T07:43:28.012Z,71.06
2022-10-15T07:45:29.291Z,71.27
2022-10-15T07:47:30.565Z,71.58
2022-10-15T07:49:31.853Z,71.88
2022-10-15T07:51:33.123Z,71.76
2022-10-15T07:53:34.423Z,72.22
2022-10-15T07:55:35.841Z,72.23
2022-10-15T07:57:37.142Z,72.58
2022-10-15T07:59:38.447Z,72.36
2022-10-15T08:01:39.762Z,72.80
2022-10-15T08:03:41.032Z,72.45
2022-10-15T08:05:42.355Z,72.85
2022-10-15T08:07:43.775Z,72.89
2022-10-15T08:11:51.254Z,73.19
2022-10-15T08:13:52.519Z,73.17
2022-10-15T08:15:59.360Z,72.67
2022-10-15T08:18:01.598Z,73.28
2022-10-15T08:20:02.901Z,73.06
2022-10-15T08:22:04.213Z,73.22
2022-10-15T08:24:05.951Z,73.51
2022-10-15T08:26:07.209Z,73.40
2022-10-15T08:30:16.081Z,73.19
2022-10-15T08:32:17.335Z,73.10
2022-10-15T08:34:18.606Z,73.27
2022-10-15T08:36:19.905Z,73.41
2022-10-15T08:38:21.228Z,73.49
2022-10-15T08:40:22.563Z,73.78
2022-10-15T08:42:30.132Z,73.60
2022-10-15T08:44:31.442Z,73.79
2022-10-15T08:46:32.728Z,73.77
2022-10-15T08:48:34.016Z,73.70
2022-10-15T08:50:35.287Z,73.97
2022-10-15T08:52:36.722Z,74.03
2022-10-15T08:54:38.183Z,74.12
2022-10-15T08:56:39.626Z,74.21
2022-10-15T08:58:40.897Z,73.17
2022-10-15T09:00:42.226Z,71.93
2022-10-15T09:02:43.599Z,71.46
2022-10-15T09:04:44.962Z,72.23
2022-10-15T09:06:46.267Z,71.29
2022-10-15T09:08:47.549Z,71.82
2022-10-15T09:10:48.806Z,71.01
2022-10-15T09:12:50.114Z,71.31
2022-10-15T09:14:51.381Z,71.54
2022-10-15T09:16:52.677Z,70.26
2022-10-15T09:18:53.997Z,70.49
2022-10-15T09:20:55.294Z,69.72
2022-10-15T09:22:56.562Z,69.95
2022-10-15T09:24:58.071Z,68.20
2022-10-15T09:26:59.348Z,68.33
2022-10-15T09:29:00.688Z,68.68
2022-10-15T09:31:02.055Z,70.02
2022-10-15T09:33:03.380Z,70.04
2022-10-15T09:35:04.654Z,70.35
2022-10-15T09:37:08.891Z,71.21
2022-10-15T09:39:10.163Z,71.00
2022-10-15T09:41:16.485Z,70.81
2022-10-15T09:43:18.138Z,70.79
2022-10-15T09:45:19.410Z,70.61
2022-10-15T09:47:20.764Z,70.81
2022-10-15T09:49:22.312Z,71.17
2022-10-15T09:51:23.582Z,71.57
2022-10-15T09:53:27.479Z,71.36
2022-10-15T09:55:29.599Z,71.59
2022-10-15T09:57:33.942Z,71.22
2022-10-15T09:59:35.227Z,71.35
2022-10-15T10:01:36.521Z,71.05
2022-10-15T10:03:38.028Z,71.12
2022-10-15T10:05:40.009Z,71.64
2022-10-15T10:07:41.570Z,71.44
2022-10-15T10:09:42.872Z,71.62
2022-10-15T10:11:44.148Z,71.46
2022-10-15T10:13:46.236Z,72.50
2022-10-15T10:15:47.494Z,73.03
2022-10-15T10:17:48.779Z,72.96
2022-10-15T10:19:50.077Z,73.38
2022-10-15T10:21:51.366Z,73.21
2022-10-15T10:23:52.623Z,73.44
2022-10-15T10:25:54.550Z,73.60
2022-10-15T10:27:55.813Z,73.11
2022-10-15T10:29:57.111Z,73.22
2022-10-15T10:31:58.464Z,73.31
2022-10-15T10:33:59.758Z,73.50
2022-10-15T10:36:01.928Z,73.47
2022-10-15T10:38:03.288Z,73.69
2022-10-15T10:40:07.751Z,73.41
2022-10-15T10:42:09.014Z,73.27
2022-10-15T10:44:10.278Z,73.50
2022-10-15T10:46:14.941Z,73.13
2022-10-15T10:48:16.314Z,73.43
2022-10-15T10:50:17.643Z,73.20
2022-10-15T10:52:18.937Z,73.11
2022-10-15T10:54:20.206Z,73.51
2022-10-15T10:56:21.477Z,73.29
2022-10-15T10:58:26.291Z,73.11
2022-10-15T11:00:28.506Z,72.91
2022-10-15T11:02:29.782Z,73.29
2022-10-15T11:04:31.067Z,73.15
2022-10-15T11:06:32.941Z,73.20
2022-10-15T11:08:34.266Z,73.41
2022-10-15T11:10:35.555Z,72.88
2022-10-15T11:12:36.885Z,73.06
2022-10-15T11:14:38.150Z,73.26
2022-10-15T11:16:39.499Z,72.92
2022-10-15T11:18:40.814Z,73.15
2022-10-15T11:20:56.310Z,73.19
2022-10-15T11:23:01.025Z,73.25
2022-10-15T11:25:07.169Z,73.43
2022-10-15T11:27:11.152Z,73.12
2022-10-15T11:29:12.794Z,72.98
2022-10-15T11:31:14.096Z,72.76
2022-10-15T11:33:15.630Z,73.00
2022-10-15T11:35:28.816Z,73.08
2022-10-15T11:37:38.406Z,73.32
2022-10-15T11:39:39.753Z,73.51
2022-10-15T11:41:41.111Z,73.31
2022-10-15T11:43:42.387Z,73.42
2022-10-15T11:45:43.857Z,73.54
2022-10-15T11:47:45.557Z,73.27
2022-10-15T11:49:46.843Z,73.68
2022-10-15T11:51:48.151Z,73.54
2022-10-15T11:53:49.409Z,73.59
2022-10-15T11:55:50.752Z,73.56
2022-10-15T11:57:52.040Z,73.88
2022-10-15T11:59:53.322Z,73.75
2022-10-15T12:01:54.617Z,73.75
2022-10-15T12:03:55.922Z,74.79
2022-10-15T12:05:57.219Z,73.18
2022-10-15T12:07:58.537Z,73.39
2022-10-15T12:10:02.790Z,73.35
2022-10-15T12:12:04.588Z,70.87
2022-10-15T12:14:06.187Z,70.77
2022-10-15T12:16:07.478Z,70.06
2022-10-15T12:18:08.918Z,69.20
2022-10-15T12:20:10.247Z,70.80
2022-10-15T12:22:11.734Z,71.55
2022-10-15T12:24:13.058Z,71.33
2022-10-15T12:28:16.541Z,72.04
2022-10-15T12:30:17.834Z,71.66
2022-10-15T12:32:19.120Z,71.29
2022-10-15T12:34:20.399Z,72.15
2022-10-15T12:36:21.882Z,71.93
2022-10-15T12:38:23.372Z,71.57
2022-10-15T12:40:24.656Z,71.82
2022-10-15T12:42:25.946Z,70.54
2022-10-15T12:44:27.292Z,71.86
2022-10-15T12:46:28.587Z,72.37
2022-10-15T12:48:30.894Z,72.61
2022-10-15T12:50:32.171Z,73.13
2022-10-15T12:52:36.879Z,73.54
2022-10-15T12:54:38.351Z,73.20
2022-10-15T12:56:40.412Z,73.40
2022-10-15T12:58:44.801Z,73.29
2022-10-15T13:00:46.198Z,73.59
2022-10-15T13:02:47.499Z,73.37
2022-10-15T13:04:48.774Z,73.68
2022-10-15T13:06:50.047Z,73.81
2022-10-15T13:08:51.304Z,74.24
2022-10-15T13:10:52.586Z,73.78
2022-10-15T13:12:56.685Z,74.27
2022-10-15T13:14:57.969Z,73.99
2022-10-15T13:16:59.451Z,74.34
2022-10-15T13:19:00.838Z,74.17
2022-10-15T13:23:18.693Z,74.06
2022-10-15T13:25:29.911Z,74.00
2022-10-15T13:27:32.003Z,74.52
2022-10-15T13:29:33.312Z,73.96
2022-10-15T13:31:34.619Z,73.54
2022-10-15T13:33:35.907Z,73.56
2022-10-15T13:35:37.207Z,73.78
2022-10-15T13:37:38.539Z,72.83
2022-10-15T13:39:39.818Z,73.05
2022-10-15T13:41:41.148Z,71.97
2022-10-15T13:43:42.434Z,71.02
2022-10-15T13:45:43.711Z,71.39
2022-10-15T13:47:44.997Z,71.42
2022-10-15T13:49:46.319Z,71.17
2022-10-15T13:51:47.639Z,70.79
2022-10-15T13:53:48.930Z,70.78
2022-10-15T13:55:50.214Z,70.92
2022-10-15T13:57:51.538Z,71.11
2022-10-15T13:59:54.922Z,71.05
2022-10-15T14:02:00.725Z,71.16
2022-10-15T14:04:02.285Z,70.98
2022-10-15T14:06:03.968Z,71.26
2022-10-15T14:08:05.246Z,71.41
2022-10-15T14:10:06.522Z,71.69
2022-10-15T14:12:07.848Z,70.91
2022-10-15T14:14:09.154Z,71.02
2022-10-15T14:16:10.433Z,70.85
2022-10-15T14:18:11.774Z,72.06
2022-10-15T14:20:26.770Z,72.10
2022-10-15T14:22:28.505Z,72.93
2022-10-15T14:24:30.738Z,72.75
2022-10-15T14:26:34.723Z,72.81
2022-10-15T14:28:36.269Z,72.79
2022-10-15T14:30:43.073Z,72.86
2022-10-15T14:32:44.346Z,72.32
2022-10-15T14:34:45.643Z,71.47
2022-10-15T14:36:46.932Z,70.95
2022-10-15T14:38:48.426Z,70.02
2022-10-15T14:40:49.716Z,70.18
2022-10-15T14:42:51.032Z,71.20
2022-10-15T14:44:52.316Z,71.72
2022-10-15T14:46:53.610Z,71.44
2022-10-15T14:48:54.875Z,71.38
2022-10-15T14:50:56.143Z,71.98
2022-10-15T14:52:57.445Z,71.68
2022-10-15T14:54:58.770Z,71.70
2022-10-15T14:57:00.101Z,71.72
2022-10-15T14:59:02.370Z,71.48
2022-10-15T15:01:03.670Z,72.21
2022-10-15T15:03:05.046Z,72.23
2022-10-15T15:05:06.831Z,71.86
2022-10-15T15:07:08.097Z,72.19
2022-10-15T15:09:09.391Z,72.11
2022-10-15T15:11:10.668Z,71.58
2022-10-15T15:13:12.132Z,71.49
2022-10-15T15:15:13.815Z,71.66
2022-10-15T15:17:15.870Z,72.06
2022-10-15T15:19:17.174Z,72.54
2022-10-15T15:21:18.490Z,72.19
2022-10-15T15:23:19.821Z,72.27
2022-10-15T15:25:23.767Z,72.62
2022-10-15T15:27:25.083Z,73.28
2022-10-15T15:31:33.767Z,73.54
2022-10-15T15:33:35.116Z,73.29
2022-10-15T15:35:36.403Z,73.60
2022-10-15T15:37:37.714Z,72.06
2022-10-15T15:39:41.955Z,72.82
2022-10-15T15:41:43.787Z,72.71
2022-10-15T15:43:45.638Z,72.74
2022-10-15T15:45:46.948Z,72.65
2022-10-15T15:47:48.235Z,72.39
2022-10-15T15:49:49.558Z,70.81
2022-10-15T15:51:50.880Z,70.10
2022-10-15T15:53:52.182Z,70.62
2022-10-15T15:55:53.575Z,70.82
2022-10-15T15:57:54.862Z,71.40
2022-10-15T15:59:56.126Z,71.45
2022-10-15T16:01:57.640Z,71.80
2022-10-15T16:03:59.067Z,71.76
2022-10-15T16:06:00.373Z,71.82
2022-10-15T16:08:01.706Z,71.67
2022-10-15T16:10:08.723Z,71.51
2022-10-15T16:12:10.042Z,71.49
2022-10-15T16:14:11.356Z,71.60
2022-10-15T16:16:12.693Z,72.09
2022-10-15T16:18:14.060Z,66.69
2022-10-15T16:20:15.555Z,69.68
2022-10-15T16:22:16.936Z,70.02
2022-10-15T16:24:18.251Z,70.35
2022-10-15T16:26:19.523Z,70.45
2022-10-15T16:28:20.854Z,70.35
2022-10-15T16:30:22.297Z,70.39
2022-10-15T16:32:23.622Z,70.36
2022-10-15T16:34:25.020Z,70.35
2022-10-15T16:36:26.325Z,70.87
2022-10-15T16:38:27.731Z,70.71
2022-10-15T16:40:32.141Z,70.78
2022-10-15T16:42:33.402Z,70.69
2022-10-15T16:44:34.731Z,70.69
2022-10-15T16:46:36.515Z,70.95
2022-10-15T16:48:37.841Z,71.00
2022-10-15T16:50:39.115Z,71.41
2022-10-15T16:52:40.402Z,71.77
2022-10-15T16:54:41.749Z,71.26
2022-10-15T16:56:43.063Z,71.18
2022-10-15T16:58:44.367Z,71.30
2022-10-15T17:00:45.672Z,71.70
2022-10-15T17:02:46.958Z,71.41
2022-10-15T17:04:48.273Z,71.30
2022-10-15T17:06:50.236Z,70.94
2022-10-15T17:08:51.525Z,71.33
2022-10-15T17:10:52.867Z,71.48
2022-10-15T17:12:54.145Z,71.00
2022-10-15T17:14:55.476Z,71.24
2022-10-15T17:16:57.369Z,71.24
2022-10-15T17:19:01.614Z,71.00
2022-10-15T17:21:02.879Z,70.98
2022-10-15T17:23:04.133Z,71.75
2022-10-15T17:25:05.445Z,71.55
2022-10-15T17:27:06.792Z,71.03
2022-10-15T17:29:08.083Z,71.97
2022-10-15T17:31:09.382Z,72.39
2022-10-15T17:33:10.706Z,71.94
2022-10-15T17:35:11.994Z,71.76
2022-10-15T17:37:14.271Z,71.71
2022-10-15T17:39:15.705Z,71.53
2022-10-15T17:41:17.019Z,71.65
2022-10-15T17:43:18.329Z,71.11
2022-10-15T17:45:19.596Z,71.27
2022-10-15T17:47:20.911Z,71.38
2022-10-15T17:49:25.219Z,71.22
2022-10-15T17:51:26.494Z,71.47
2022-10-15T17:53:27.957Z,71.16
2022-10-15T17:55:32.987Z,71.30
2022-10-15T17:57:34.267Z,71.00
2022-10-15T17:59:35.560Z,71.47
2022-10-15T18:01:57.168Z,71.33
2022-10-15T18:03:58.470Z,71.26
2022-10-15T18:05:59.763Z,71.05
2022-10-15T18:08:01.046Z,71.00
2022-10-15T18:10:02.390Z,71.98
2022-10-15T18:12:06.466Z,71.98
2022-10-15T18:14:07.760Z,72.07
2022-10-15T18:16:09.435Z,72.16
2022-10-15T18:18:10.762Z,71.54
2022-10-15T18:20:13.545Z,71.43
2022-10-15T18:22:17.659Z,71.81
2022-10-15T18:24:21.718Z,71.48
2022-10-15T18:26:23.497Z,71.31
2022-10-15T18:28:24.846Z,71.44
2022-10-15T18:30:26.188Z,70.63
2022-10-15T18:32:27.484Z,70.51
2022-10-15T18:34:28.915Z,70.75
2022-10-15T18:36:30.354Z,70.80
2022-10-15T18:38:31.656Z,70.92
2022-10-15T18:40:37.303Z,71.55
2022-10-15T18:42:43.360Z,71.63
2022-10-15T18:44:47.480Z,71.64
2022-10-15T18:46:48.838Z,71.64
2022-10-15T18:48:50.333Z,71.61
2022-10-15T18:50:54.835Z,71.69
2022-10-15T18:52:56.192Z,71.20
2022-10-15T18:54:57.488Z,71.28
2022-10-15T18:56:58.780Z,71.67
2022-10-15T18:59:00.052Z,70.86
2022-10-15T19:01:01.334Z,71.55
2022-10-15T19:03:02.808Z,71.17
2022-10-15T19:05:04.450Z,71.91
2022-10-15T19:07:05.730Z,72.15
2022-10-15T19:09:07.047Z,72.25
2022-10-15T19:11:08.696Z,72.09
2022-10-15T19:13:10.016Z,71.48
2022-10-15T19:15:11.740Z,71.57
2022-10-15T19:17:13.436Z,71.72
2022-10-15T19:19:16.176Z,71.32
2022-10-15T19:21:20.566Z,71.18
2022-10-15T19:23:21.969Z,71.34
2022-10-15T19:25:23.287Z,71.77
2022-10-15T19:27:24.793Z,71.62
2022-10-15T19:29:27.670Z,71.45
2022-10-15T19:31:30.591Z,71.48
2022-10-15T19:33:31.873Z,71.26
2022-10-15T19:35:33.159Z,71.63
2022-10-15T19:37:34.768Z,71.59
2022-10-15T19:39:36.293Z,71.71
2022-10-15T19:41:38.093Z,71.78
2022-10-15T19:43:39.547Z,72.34
2022-10-15T19:45:43.041Z,71.79
2022-10-15T19:47:44.317Z,72.15
2022-10-15T19:49:45.601Z,71.93
2022-10-15T19:51:46.863Z,71.87
2022-10-15T19:53:48.148Z,71.49
2022-10-15T19:55:50.339Z,71.31
2022-10-15T19:57:51.619Z,71.78
2022-10-15T19:59:52.910Z,70.82
2022-10-15T20:01:54.189Z,71.09
2022-10-15T20:03:55.463Z,71.35
2022-10-15T20:05:56.773Z,71.74
2022-10-15T20:07:58.092Z,71.56
2022-10-15T20:09:59.359Z,72.31
2022-10-15T20:12:00.967Z,72.02
2022-10-15T20:14:02.357Z,72.27
2022-10-15T20:16:03.658Z,71.96
2022-10-15T20:18:05.387Z,71.85
2022-10-15T20:20:06.878Z,71.40
2022-10-15T20:22:08.151Z,71.66
2022-10-15T20:24:09.452Z,71.33
2022-10-15T20:26:10.779Z,70.22
2022-10-15T20:28:12.048Z,70.65
2022-10-15T20:30:13.359Z,71.09
2022-10-15T20:32:33.431Z,71.10
2022-10-15T20:34:35.870Z,70.76
2022-10-15T20:36:41.215Z,71.03
2022-10-15T20:38:42.558Z,70.95
2022-10-15T20:40:43.914Z,71.30
2022-10-15T20:42:45.206Z,71.35
2022-10-15T20:44:46.486Z,71.71
2022-10-15T20:46:47.776Z,71.50
2022-10-15T20:48:49.087Z,71.52
2022-10-15T20:50:50.367Z,70.86
2022-10-15T20:52:51.686Z,71.26
2022-10-15T20:54:52.997Z,71.61
2022-10-15T20:56:54.275Z,72.05
2022-10-15T20:58:55.544Z,71.73
2022-10-15T21:00:57.102Z,71.73
2022-10-15T21:02:58.402Z,71.79
2022-10-15T21:04:59.688Z,71.04
2022-10-15T21:07:00.974Z,71.11
2022-10-15T21:09:02.298Z,71.10
2022-10-15T21:11:03.843Z,71.66
2022-10-15T21:13:05.114Z,71.34
2022-10-15T21:15:06.414Z,71.41
2022-10-15T21:17:07.920Z,71.21
2022-10-15T21:19:09.213Z,71.72
2022-10-15T21:21:10.499Z,71.17
2022-10-15T21:23:11.854Z,71.28
2022-10-15T21:25:13.152Z,71.64
2022-10-15T21:27:17.359Z,71.90
2022-10-15T21:29:19.986Z,71.71
2022-10-15T21:31:21.287Z,71.82
2022-10-15T21:33:22.586Z,71.60
2022-10-15T21:35:23.850Z,72.14
2022-10-15T21:37:25.340Z,72.55
2022-10-15T21:39:26.822Z,72.90
2022-10-15T21:41:28.518Z,72.78
2022-10-15T21:43:29.786Z,72.34
2022-10-15T21:45:31.253Z,72.43
2022-10-15T21:47:33.419Z,72.17
2022-10-15T21:49:34.674Z,72.36
2022-10-15T21:51:35.983Z,72.58
2022-10-15T21:53:37.720Z,72.38
2022-10-15T21:55:39.159Z,72.02
2022-10-15T21:57:40.523Z,72.37
2022-10-15T21:59:41.829Z,72.25
2022-10-15T22:01:45.621Z,72.50
2022-10-15T22:03:46.965Z,72.43
2022-10-15T22:05:48.259Z,72.19
2022-10-15T22:07:49.575Z,71.89
2022-10-15T22:09:50.846Z,72.00
2022-10-15T22:11:52.128Z,72.04
2022-10-15T22:13:53.460Z,72.15
2022-10-15T22:15:54.960Z,71.50
2022-10-15T22:17:56.257Z,71.45
2022-10-15T22:19:57.525Z,72.05
2022-10-15T22:21:58.853Z,71.86
2022-10-15T22:24:00.140Z,71.99
2022-10-15T22:26:01.426Z,72.26
2022-10-15T22:28:02.699Z,72.26
2022-10-15T22:30:04.452Z,72.66
2022-10-15T22:32:05.798Z,72.25
2022-10-15T22:34:07.065Z,71.96
2022-10-15T22:36:13.133Z,73.06
2022-10-15T22:38:14.426Z,70.68
2022-10-15T22:40:15.767Z,71.65
2022-10-15T22:42:17.047Z,71.83
2022-10-15T22:44:18.354Z,71.74
2022-10-15T22:46:19.690Z,72.43
2022-10-15T22:48:20.946Z,72.10
2022-10-15T22:50:22.463Z,72.04
2022-10-15T22:52:24.046Z,72.25
2022-10-15T22:54:25.698Z,72.68
2022-10-15T22:56:26.993Z,72.83
2022-10-15T22:58:28.262Z,72.92
2022-10-15T23:00:29.543Z,73.11
2022-10-15T23:02:30.865Z,73.84
2022-10-15T23:04:32.193Z,73.67
2022-10-15T23:06:33.503Z,73.74
2022-10-15T23:08:34.767Z,74.03
2022-10-15T23:10:36.105Z,74.18
2022-10-15T23:12:37.580Z,73.99
2022-10-15T23:14:38.857Z,74.21
2022-10-15T23:16:40.502Z,74.35
2022-10-15T23:18:41.832Z,74.31
2022-10-15T23:20:43.146Z,74.79
2022-10-15T23:22:44.579Z,74.91
2022-10-15T23:24:45.871Z,74.91
2022-10-15T23:26:47.135Z,74.62
2022-10-15T23:28:48.424Z,75.03
2022-10-15T23:30:49.706Z,74.87
2022-10-15T23:32:51.136Z,75.28
2022-10-15T23:34:52.414Z,75.06
2022-10-15T23:36:53.748Z,75.18
2022-10-15T23:38:55.036Z,75.47
2022-10-15T23:40:56.339Z,75.65
2022-10-15T23:42:57.624Z,75.88
2022-10-15T23:44:58.904Z,75.61
2022-10-15T23:47:00.178Z,75.56
2022-10-15T23:49:01.446Z,76.25
2022-10-15T23:51:03.816Z,75.76
2022-10-15T23:53:05.171Z,75.76
2022-10-15T23:55:06.457Z,76.11
2022-10-15T23:57:07.747Z,76.20
2022-10-15T23:59:09.023Z,75.79
